Mercer, WI (54547)

7:51 PM CST on December 04, 2016 (GMT -0600)
Pine Lake ,Town of Oma | | Change Station

Elev 1604 ft 46.25 °N, 90.13 °W | Updated 5 seconds ago

Overcast
Overcast
30.0 °F
Feels Like 23 °F
N
6.5
Wind Variable Wind from SSW
Gusts 7.4 mph

Today
High -- | Low -- °F
--% Chance of Precip.
Yesterday
High -- | Low -- °F
Precip. -- in
Pressure 29.70 in
Visibility 5.0 miles
Clouds Overcast 500 ft
Windchill 23 °F
Dew Point 27 °F
Humidity 88%
Rainfall 0.00 in
Snow Depth Not available.
7:26 AM 4:14 PM
Waxing Crescent, 27% visible
METAR KD25 050135Z AUTO 19007KT 5SM UP OVC005 M02/M02 A2970 RMK AO2 T10201020
Pressure 29.70 in
Visibility 5.0 miles
Clouds Overcast 500 ft
Windchill 23 °F
Dew Point 27 °F
Humidity 88%
Rainfall 0.00 in
Snow Depth Not available.
7:26 AM 4:14 PM
Waxing Crescent, 27% visible
METAR KD25 050135Z AUTO 19007KT 5SM UP OVC005 M02/M02 A2970 RMK AO2 T10201020

10-Day Weather Forecast

Almanac

Astronomy

Dec. 04, 2016 Rise Set
Actual Time
Civil Twilight
Nautical Twilight
Astronomical Twilight
Moon
Length of Visible Light
Length of Day
Tomorrow will be .
, % of the Moon is Illuminated

Today's Extremes

State Highs State Lows

Community

WunderPhotos

Upload Photos

1,955,744 photos uploaded!

WunderBlog® & News

Nearby

Air Quality

  Air Quality AQ Index Pollutant
Not available.

Snow Depth

Station Depth Elevation

Earthquake Activity

City Distance Mag. Time & Date
Minimum magnitude displayed is 2.5.

Coastal Water Temperatures

Place Temperature

Stations

Nearby Weather Stations

Station Location Temp. Windchill Dew Point Humidity Wind Precip. Elev Updated Type
                   

Watches & Warnings

There are currently no watches in effect.